KONP

Newport Municipal Airport

Newport, Oregon, USA
METAR KONP 181515Z AUTO 22016G24KT 4SM -RA SCT028 BKN036 OVC055 08/06 A2991 RMK AO2 P0010
Observed Flight Rules
Jan-18 @ 15:15 UTC (24 minutes ago) Marginal Visual Flight Rules
Wind Visibility Clouds Conditions
220° at 16 knots
 Gusting to 24 knots
4 miles
  • Scattered at 2,800' AGL
  • Broken at 3,600' AGL
  • Overcast at 5,500' AGL
  • Light Rain
Temperatures Readings Precipitation
Current 8°C / 46°F
Dewpoint 6°C / 43°F
Humidity 87%
Altimeter 29.91" Hg
Pressure 1013 hPa
Elevation 48
Current Rain 0.1
METAR KONP 181515Z AUTO 22016G24KT 4SM -RA SCT028 BKN036 OVC055 08/06 A2991 RMK AO2 P0010
Observed Flight Rules
Jan-18 @ 15:15 UTC
(24 minutes ago)
MVFR
Wind Visibility
220° at 16 knots
 Gusting to 24 knots
4 miles
Clouds
  • Scattered at 2,800' AGL
  • Broken at 3,600' AGL
  • Overcast at 5,500' AGL
Conditions
  • Light Rain
Temperature Dewpoint
8°C / 46°F 6°C / 43°F
Humidity Altimeter Pressure
87% 29.91" Hg 1013 hPa
Current Rain
0.1